Time;durP1;ratioP1;P1;durP2;ratioP2;P2;SDS_P1;SDS_P2;PMS_P1;PMS_P2;Temp;Humidity;BMP_temperature;BMP_pressure;BME280_temperature;BME280_humidity;BME280_pressure;Samples;Min_cycle;Max_cycle;Signal;HPM_P1;HPM_P2
2022/11/09 00:01:13;;;;;;;;;;;;;;;19.76;54.85;100473.75;5052136;28;19913;-76
2022/11/09 00:03:38;;;;;;;;;;;;;;;19.16;57.03;100477.25;5051628;28;19916;-73
2022/11/09 00:06:03;;;;;;;;;;;;;;;19.94;54.42;100467.50;5052461;28;19917;-74
2022/11/09 00:08:28;;;;;;;;;;;;;;;19.78;54.71;100474.28;5051295;28;20070;-75
2022/11/09 00:10:54;;;;;;;;;;;;;;;19.79;54.85;100472.38;5052167;28;20384;-73
2022/11/09 00:13:19;;;;;;;;;;;;;;;19.50;56.29;100467.03;5052189;28;19924;-73
2022/11/09 00:15:45;;;;;;;;;;;;;;;20.35;53.27;100466.88;5039774;28;19963;-74
2022/11/09 00:18:10;;;;;;;;;;;;;;;20.12;53.66;100468.59;5032299;28;19909;-74
2022/11/09 00:20:35;;;;;;;;;;;;;;;20.32;53.51;100467.47;5042590;28;19920;-74
2022/11/09 00:23:00;;;;;;;;;;;;;;;19.68;55.01;100463.50;5052471;28;19912;-75
2022/11/09 00:25:26;;;;;;;;;;;;;;;20.12;53.87;100465.84;5033431;28;19925;-74
2022/11/09 00:27:51;;;;;;;;;;;;;;;20.24;53.72;100471.69;5033180;28;19913;-75
2022/11/09 00:30:17;;;;;;;;;;;;;;;19.85;55.07;100461.06;5035014;28;19921;-74
2022/11/09 00:32:43;;;;;;;;;;;;;;;19.57;55.55;100461.22;5043634;28;20287;-75
2022/11/09 00:35:08;;;;;;;;;;;;;;;19.98;53.92;100459.53;5056761;28;19924;-75
2022/11/09 00:37:34;;;;;;;;;;;;;;;19.64;55.03;100458.94;5056147;28;19921;-74
2022/11/09 00:39:59;;;;;;;;;;;;;;;19.71;54.94;100468.41;5056418;28;20439;-74
2022/11/09 00:42:24;;;;;;;;;;;;;;;20.39;53.03;100465.97;5056177;28;19917;-74
2022/11/09 00:44:50;;;;;;;;;;;;;;;20.39;52.92;100471.44;5056801;28;20001;-73
2022/11/09 00:47:15;;;;;;;;;;;;;;;20.17;53.87;100474.75;5056104;28;19913;-73
2022/11/09 00:49:40;;;;;;;;;;;;;;;20.35;53.40;100470.41;5054955;28;19917;-74
2022/11/09 00:52:05;;;;;;;;;;;;;;;20.26;53.13;100479.59;5055060;28;19921;-74
2022/11/09 00:54:31;;;;;;;;;;;;;;;20.38;52.98;100469.00;5055455;28;20341;-73
2022/11/09 00:56:56;;;;;;;;;;;;;;;20.37;52.84;100478.28;5056132;28;19913;-75
2022/11/09 00:59:21;;;;;;;;;;;;;;;19.84;54.25;100481.28;5056262;28;19908;-75
2022/11/09 01:01:46;;;;;;;;;;;;;;;20.29;53.06;100487.97;5056143;28;19916;-74
2022/11/09 01:04:11;;;;;;;;;;;;;;;19.66;55.32;100478.53;5055951;28;19916;-73
2022/11/09 01:06:37;;;;;;;;;;;;;;;19.38;56.33;100476.75;5056301;28;19913;-74
2022/11/09 01:09:02;;;;;;;;;;;;;;;18.86;58.31;100461.25;5055861;28;19966;-72
2022/11/09 01:11:27;;;;;;;;;;;;;;;19.04;57.19;100466.78;5054640;28;19987;-73
2022/11/09 01:13:53;;;;;;;;;;;;;;;19.47;55.86;100469.53;5055846;28;20016;-74
2022/11/09 01:16:19;;;;;;;;;;;;;;;18.81;58.36;100477.66;5051061;28;19917;-73
2022/11/09 01:18:45;;;;;;;;;;;;;;;19.11;57.10;100472.66;5054093;28;19917;-73
2022/11/09 01:21:11;;;;;;;;;;;;;;;19.17;56.73;100470.69;5055619;28;19913;-74
2022/11/09 01:23:37;;;;;;;;;;;;;;;19.28;56.14;100469.50;5056283;28;19919;-73
2022/11/09 01:26:07;;;;;;;;;;;;;;;18.92;57.24;100466.34;5055623;28;19924;-75
2022/11/09 01:28:33;;;;;;;;;;;;;;;19.42;55.82;100475.84;5055206;28;19917;-75
2022/11/09 01:31:03;;;;;;;;;;;;;;;18.63;57.98;100470.22;5055396;28;19913;-73
2022/11/09 01:33:28;;;;;;;;;;;;;;;18.47;58.71;100466.81;5055767;28;20570;-74
2022/11/09 01:35:54;;;;;;;;;;;;;;;18.72;57.82;100461.13;5056187;28;19909;-73
2022/11/09 01:38:19;;;;;;;;;;;;;;;19.18;56.05;100461.44;5055326;28;20063;-74
2022/11/09 01:40:44;;;;;;;;;;;;;;;19.47;55.17;100472.25;5053650;28;20050;-74
2022/11/09 01:43:14;;;;;;;;;;;;;;;19.02;56.49;100468.97;5055454;28;19924;-74
2022/11/09 01:45:40;;;;;;;;;;;;;;;18.98;56.44;100465.22;5055520;28;19923;-73
2022/11/09 01:48:25;;;;;;;;;;;;;;;19.11;56.11;100472.66;5054718;28;20272;-73
2022/11/09 01:50:52;;;;;;;;;;;;;;;19.51;54.91;100463.22;4993831;28;19953;-74
2022/11/09 01:53:19;;;;;;;;;;;;;;;19.02;56.31;100468.16;4992633;28;20531;-73
2022/11/09 01:55:46;;;;;;;;;;;;;;;19.22;55.86;100470.66;4993030;28;20055;-75
2022/11/09 01:58:14;;;;;;;;;;;;;;;18.46;57.93;100478.78;4993381;28;19917;-73
2022/11/09 02:00:42;;;;;;;;;;;;;;;18.91;56.28;100474.78;4993190;28;19918;-74
2022/11/09 02:03:11;;;;;;;;;;;;;;;19.17;55.88;100479.69;4993173;28;20300;-74
2022/11/09 02:05:38;;;;;;;;;;;;;;;18.67;57.39;100468.53;4993391;28;19913;-73
2022/11/09 02:08:04;;;;;;;;;;;;;;;19.09;55.48;100476.78;4992954;28;19925;-72
2022/11/09 02:10:29;;;;;;;;;;;;;;;18.78;56.72;100470.03;4992755;28;19921;-75
2022/11/09 02:12:55;;;;;;;;;;;;;;;18.87;56.16;100477.28;4975980;28;19975;-75
2022/11/09 02:15:21;;;;;;;;;;;;;;;18.80;56.68;100485.00;4992453;28;20478;-74
2022/11/09 02:17:48;;;;;;;;;;;;;;;19.12;55.71;100479.72;4993605;28;20012;-75
2022/11/09 02:20:14;;;;;;;;;;;;;;;19.22;55.14;100481.53;4993041;28;19928;-74
2022/11/09 02:22:40;;;;;;;;;;;;;;;18.87;55.98;100477.28;4992612;28;20305;-75
2022/11/09 02:25:06;;;;;;;;;;;;;;;18.58;56.67;100484.66;4992080;28;19928;-74
2022/11/09 02:27:31;;;;;;;;;;;;;;;18.72;56.04;100487.53;5006235;28;19921;-74
2022/11/09 02:29:57;;;;;;;;;;;;;;;18.84;55.66;100491.50;5034734;28;19920;-73
2022/11/09 02:32:24;;;;;;;;;;;;;;;18.71;56.47;100486.72;5034638;28;19905;-73
2022/11/09 02:34:50;;;;;;;;;;;;;;;19.30;54.89;100484.41;5034890;28;19916;-74
2022/11/09 02:37:27;;;;;;;;;;;;;;;18.93;55.57;100487.03;5034988;28;19920;-73
2022/11/09 02:39:52;;;;;;;;;;;;;;;18.80;55.78;100486.91;5033075;28;19940;-74
2022/11/09 02:42:18;;;;;;;;;;;;;;;19.09;55.11;100485.78;5034267;28;20400;-74
2022/11/09 02:44:46;;;;;;;;;;;;;;;19.07;55.41;100474.34;5034592;28;19913;-73
2022/11/09 02:47:12;;;;;;;;;;;;;;;19.28;54.29;100458.59;5033911;28;19942;-74
2022/11/09 02:49:37;;;;;;;;;;;;;;;19.19;54.66;100461.13;5033892;28;20357;-73
2022/11/09 02:52:02;;;;;;;;;;;;;;;19.23;55.31;100462.19;5033323;28;19913;-74
2022/11/09 02:54:27;;;;;;;;;;;;;;;19.48;53.84;100468.44;5033436;28;19968;-73
2022/11/09 02:56:53;;;;;;;;;;;;;;;19.43;54.05;100460.31;5034278;28;19955;-73
2022/11/09 02:59:18;;;;;;;;;;;;;;;19.12;54.77;100466.09;5049722;28;19916;-74
2022/11/09 03:01:43;;;;;;;;;;;;;;;18.98;55.93;100465.22;5053851;28;19917;-74
2022/11/09 03:04:08;;;;;;;;;;;;;;;19.10;55.52;100481.94;5054036;28;19912;-74
2022/11/09 03:06:34;;;;;;;;;;;;;;;19.03;55.53;100480.66;5053814;28;19920;-73
2022/11/09 03:09:06;;;;;;;;;;;;;;;18.77;56.29;100471.94;5046082;28;19935;-74
2022/11/09 03:11:31;;;;;;;;;;;;;;;18.64;56.83;100482.69;5033652;28;19909;-74
2022/11/09 03:13:57;;;;;;;;;;;;;;;18.70;56.50;100478.84;5032515;28;20381;-74
2022/11/09 03:16:22;;;;;;;;;;;;;;;18.74;56.47;100472.53;5051441;28;19998;-74
2022/11/09 03:18:47;;;;;;;;;;;;;;;18.93;55.79;100476.13;5053564;28;20058;-74
2022/11/09 03:21:13;;;;;;;;;;;;;;;18.59;57.17;100480.03;5053479;28;20066;-74
2022/11/09 03:23:38;;;;;;;;;;;;;;;18.36;57.71;100478.84;5053826;28;19916;-73
2022/11/09 03:26:03;;;;;;;;;;;;;;;18.43;57.52;100482.09;5053236;28;19921;-74
2022/11/09 03:28:29;;;;;;;;;;;;;;;18.80;56.32;100486.91;5052924;28;20007;-73
2022/11/09 03:30:54;;;;;;;;;;;;;;;18.63;57.32;100487.34;5053533;28;19912;-73
2022/11/09 03:33:19;;;;;;;;;;;;;;;18.41;58.21;100479.63;5053301;28;20726;-73
2022/11/09 03:35:44;;;;;;;;;;;;;;;18.76;56.95;100475.78;5053960;28;19966;-73
2022/11/09 03:38:10;;;;;;;;;;;;;;;18.68;57.23;100478.31;5053270;28;20273;-74
2022/11/09 03:40:35;;;;;;;;;;;;;;;18.30;59.06;100485.41;5053179;28;19912;-74
2022/11/09 03:43:00;;;;;;;;;;;;;;;18.20;58.69;100483.59;5052930;28;19917;-74
2022/11/09 03:45:28;;;;;;;;;;;;;;;18.16;59.13;100481.75;5052640;28;19919;-74
2022/11/09 03:47:58;;;;;;;;;;;;;;;18.60;57.89;100482.47;5053437;28;19966;-74
2022/11/09 03:50:24;;;;;;;;;;;;;;;18.96;56.97;100489.19;5052972;28;20391;-73
2022/11/09 03:52:49;;;;;;;;;;;;;;;17.94;59.59;100487.59;5052562;28;19917;-74
2022/11/09 03:55:14;;;;;;;;;;;;;;;18.41;57.76;100487.78;5051854;28;19917;-74
2022/11/09 03:57:39;;;;;;;;;;;;;;;18.06;59.08;100479.88;5051914;28;19917;-74
2022/11/09 04:00:06;;;;;;;;;;;;;;;18.53;57.90;100486.63;5051913;28;19943;-73
2022/11/09 04:02:31;;;;;;;;;;;;;;;18.48;58.16;100490.19;5052417;28;19916;-73
2022/11/09 04:04:57;;;;;;;;;;;;;;;18.09;60.01;100487.50;5054868;28;19939;-73
2022/11/09 04:07:22;;;;;;;;;;;;;;;18.22;59.30;100483.34;5056330;28;19916;-74
2022/11/09 04:09:47;;;;;;;;;;;;;;;18.65;58.01;100481.63;5056484;28;20352;-74
2022/11/09 04:12:12;;;;;;;;;;;;;;;18.57;58.11;100490.41;5056274;28;19910;-74
2022/11/09 04:14:37;;;;;;;;;;;;;;;17.86;60.14;100496.34;5056756;28;19940;-74
2022/11/09 04:17:03;;;;;;;;;;;;;;;18.77;58.05;100484.78;5056754;28;19943;-73
2022/11/09 04:19:28;;;;;;;;;;;;;;;18.79;57.21;100485.28;5057020;28;19920;-73
2022/11/09 04:21:53;;;;;;;;;;;;;;;18.16;59.84;100493.41;5056252;28;19942;-74
2022/11/09 04:24:18;;;;;;;;;;;;;;;17.61;61.83;100499.19;5056501;28;20000;-73
2022/11/09 04:26:45;;;;;;;;;;;;;;;18.31;59.21;100506.91;5056531;28;19917;-73
2022/11/09 04:29:10;;;;;;;;;;;;;;;18.54;58.68;100518.19;5056257;28;19923;-73
2022/11/09 04:31:36;;;;;;;;;;;;;;;18.00;60.41;100529.16;5056233;28;19921;-74
2022/11/09 04:34:01;;;;;;;;;;;;;;;18.09;60.06;100528.28;5056050;28;19923;-74
2022/11/09 04:36:26;;;;;;;;;;;;;;;17.89;61.50;100528.41;5054259;28;19923;-73
2022/11/09 04:38:51;;;;;;;;;;;;;;;18.34;59.53;100528.09;5056109;28;20312;-73
2022/11/09 04:41:17;;;;;;;;;;;;;;;17.88;60.30;100539.56;5055528;28;19956;-73
2022/11/09 04:43:42;;;;;;;;;;;;;;;17.69;61.34;100536.66;5055860;28;20372;-74
2022/11/09 04:46:07;;;;;;;;;;;;;;;18.30;59.34;100532.47;5055864;28;19951;-73
2022/11/09 04:48:33;;;;;;;;;;;;;;;17.67;60.91;100536.13;5055965;28;20007;-73
2022/11/09 04:51:02;;;;;;;;;;;;;;;17.63;61.12;100526.91;5055753;28;20451;-72
2022/11/09 04:53:28;;;;;;;;;;;;;;;17.92;59.95;100546.91;5056389;28;19962;-73
2022/11/09 04:55:53;;;;;;;;;;;;;;;17.87;60.49;100552.34;5053886;28;20365;-74
2022/11/09 04:58:18;;;;;;;;;;;;;;;17.42;61.73;100558.75;5055785;28;19962;-73
2022/11/09 05:00:44;;;;;;;;;;;;;;;17.67;60.98;100551.66;5055212;28;19928;-73
2022/11/09 05:03:09;;;;;;;;;;;;;;;17.68;60.87;100553.25;5053859;28;19920;-73
2022/11/09 05:05:35;;;;;;;;;;;;;;;17.69;60.88;100555.69;5055816;28;19912;-74
2022/11/09 05:08:01;;;;;;;;;;;;;;;18.04;59.58;100552.00;5055258;28;19991;-74
2022/11/09 05:10:26;;;;;;;;;;;;;;;17.95;59.92;100559.09;5054983;28;19920;-73
2022/11/09 05:13:09;;;;;;;;;;;;;;;18.33;58.74;100555.59;5055095;28;19928;-74
2022/11/09 05:15:34;;;;;;;;;;;;;;;18.06;59.07;100550.59;5055297;28;19916;-74
2022/11/09 05:18:00;;;;;;;;;;;;;;;18.04;58.33;100555.50;5053516;28;19939;-75
2022/11/09 05:20:26;;;;;;;;;;;;;;;17.69;60.38;100561.13;5056401;28;19916;-74
2022/11/09 05:25:36;;;;;;;;;;;;;;;17.64;60.15;100553.00;5035405;28;19936;-72
2022/11/09 05:28:01;;;;;;;;;;;;;;;18.21;58.39;100558.69;5035984;28;19921;-75
2022/11/09 05:30:26;;;;;;;;;;;;;;;18.01;58.75;100556.06;5035967;28;19924;-74
2022/11/09 05:32:51;;;;;;;;;;;;;;;17.61;60.54;100558.19;5035911;28;19924;-75
2022/11/09 05:35:17;;;;;;;;;;;;;;;17.60;60.15;100549.22;5035300;28;19924;-73
2022/11/09 05:37:45;;;;;;;;;;;;;;;17.69;60.03;100558.41;5035719;28;19992;-74
2022/11/09 05:40:10;;;;;;;;;;;;;;;17.43;60.71;100549.50;5034589;28;20279;-74
2022/11/09 05:42:39;;;;;;;;;;;;;;;17.50;60.31;100555.50;5035486;28;19917;-75
2022/11/09 05:45:05;;;;;;;;;;;;;;;17.89;59.08;100560.22;5035406;28;19921;-74
2022/11/09 05:47:35;;;;;;;;;;;;;;;17.97;58.37;100562.34;5034596;28;19920;-73
2022/11/09 05:50:02;;;;;;;;;;;;;;;17.44;60.15;100558.47;5035374;28;19913;-73
2022/11/09 05:52:27;;;;;;;;;;;;;;;17.93;58.66;100564.00;5035614;28;19929;-75
2022/11/09 05:54:52;;;;;;;;;;;;;;;17.72;58.90;100560.59;5034918;28;19912;-73
2022/11/09 05:57:17;;;;;;;;;;;;;;;17.53;59.65;100554.16;5038053;28;20253;-74
2022/11/09 05:59:43;;;;;;;;;;;;;;;17.75;59.50;100554.56;5054853;28;20410;-74
2022/11/09 06:02:08;;;;;;;;;;;;;;;17.90;59.03;100554.50;5054983;28;19913;-74
2022/11/09 06:04:33;;;;;;;;;;;;;;;17.90;58.66;100572.72;5054664;28;20011;-74
2022/11/09 06:06:58;;;;;;;;;;;;;;;18.08;58.13;100567.44;5055105;28;20402;-74
2022/11/09 06:09:24;;;;;;;;;;;;;;;18.16;57.38;100574.22;5055109;28;19939;-75
2022/11/09 06:11:49;;;;;;;;;;;;;;;18.16;57.53;100575.00;5035197;28;19917;-74
2022/11/09 06:14:14;;;;;;;;;;;;;;;17.69;58.69;100568.47;5034723;28;19928;-74
2022/11/09 06:16:39;;;;;;;;;;;;;;;18.02;58.51;100581.38;5034537;28;19913;-74
2022/11/09 06:19:05;;;;;;;;;;;;;;;17.97;58.73;100581.38;5034664;28;19956;-74
2022/11/09 06:21:30;;;;;;;;;;;;;;;17.97;58.34;100581.38;5034657;28;19971;-75
2022/11/09 06:23:55;;;;;;;;;;;;;;;18.56;56.58;100587.56;5051502;28;19917;-75
2022/11/09 06:26:20;;;;;;;;;;;;;;;17.81;58.61;100579.84;5046169;28;19967;-74
2022/11/09 06:28:46;;;;;;;;;;;;;;;18.54;56.55;100580.75;5044710;28;19928;-74
2022/11/09 06:31:13;;;;;;;;;;;;;;;18.58;56.12;100585.38;5045699;28;19988;-73
2022/11/09 06:33:38;;;;;;;;;;;;;;;17.93;58.32;100591.19;5043493;28;19921;-73
2022/11/09 06:36:03;;;;;;;;;;;;;;;18.61;55.75;100592.97;5042945;28;19916;-75
2022/11/09 06:38:29;;;;;;;;;;;;;;;18.47;56.59;100588.44;5046931;28;19958;-75
2022/11/09 06:40:55;;;;;;;;;;;;;;;18.21;57.70;100588.59;5045791;28;20003;-73
2022/11/09 06:43:20;;;;;;;;;;;;;;;18.32;57.23;100598.31;5041009;28;19921;-72
2022/11/09 06:45:46;;;;;;;;;;;;;;;17.56;59.81;100599.78;5048025;28;19923;-74
2022/11/09 06:48:11;;;;;;;;;;;;;;;17.35;60.37;100599.00;5054318;28;19913;-74
2022/11/09 06:50:36;;;;;;;;;;;;;;;18.00;58.32;100603.41;5051060;28;20357;-74
2022/11/09 06:53:03;;;;;;;;;;;;;;;18.33;57.30;100608.09;5045836;28;20007;-73
2022/11/09 06:55:29;;;;;;;;;;;;;;;17.94;58.28;100622.72;5042031;28;19917;-73
2022/11/09 06:57:55;;;;;;;;;;;;;;;18.14;57.93;100615.28;5040781;28;19960;-72
2022/11/09 07:00:20;;;;;;;;;;;;;;;17.96;58.67;100607.78;5041271;28;20542;-73
2022/11/09 07:02:45;;;;;;;;;;;;;;;17.85;58.54;100608.91;5039449;28;20268;-74
2022/11/09 07:05:11;;;;;;;;;;;;;;;18.00;57.91;100608.84;5036551;28;19999;-75
2022/11/09 07:07:36;;;;;;;;;;;;;;;17.87;58.29;100614.88;5038871;28;19921;-76
2022/11/09 07:10:02;;;;;;;;;;;;;;;17.95;58.40;100614.28;5040477;28;19917;-73
2022/11/09 07:12:27;;;;;;;;;;;;;;;17.47;60.28;100612.28;5043389;28;20363;-73
2022/11/09 07:14:52;;;;;;;;;;;;;;;17.71;59.08;100624.16;5045689;28;19970;-75
2022/11/09 07:17:18;;;;;;;;;;;;;;;18.15;58.36;100624.25;5041177;28;19925;-73
2022/11/09 07:19:43;;;;;;;;;;;;;;;17.71;59.46;100617.94;5045422;28;20009;-73
2022/11/09 07:22:08;;;;;;;;;;;;;;;17.90;59.30;100618.94;5041679;28;20355;-74
2022/11/09 07:24:33;;;;;;;;;;;;;;;18.28;58.02;100626.34;5040815;28;19924;-74
2022/11/09 07:26:59;;;;;;;;;;;;;;;17.91;59.17;100626.81;5036556;28;20423;-73
2022/11/09 07:29:24;;;;;;;;;;;;;;;18.20;57.70;100624.25;5039065;28;20023;-74
2022/11/09 07:31:49;;;;;;;;;;;;;;;17.89;58.52;100625.47;5039610;28;19912;-74
2022/11/09 07:34:14;;;;;;;;;;;;;;;17.55;60.11;100625.34;5043834;28;20284;-73
2022/11/09 07:36:39;;;;;;;;;;;;;;;18.09;58.13;100626.19;5041108;28;20296;-74
2022/11/09 07:39:05;;;;;;;;;;;;;;;17.83;59.01;100637.44;5041262;28;19913;-74
2022/11/09 07:41:30;;;;;;;;;;;;;;;17.58;60.30;100632.91;5041975;28;19917;-72
2022/11/09 07:43:56;;;;;;;;;;;;;;;17.67;59.86;100631.25;5043431;28;20331;-74
2022/11/09 07:46:21;;;;;;;;;;;;;;;17.92;59.33;100633.91;5043197;28;20384;-72
2022/11/09 07:48:46;;;;;;;;;;;;;;;17.60;59.52;100632.63;5043679;28;19924;-73
2022/11/09 07:51:12;;;;;;;;;;;;;;;18.48;57.38;100637.16;5043311;28;19920;-73
2022/11/09 07:53:37;;;;;;;;;;;;;;;18.21;58.31;100637.56;5043981;28;19920;-70
2022/11/09 07:56:03;;;;;;;;;;;;;;;18.45;57.38;100637.72;5039538;28;19917;-74
2022/11/09 07:58:28;;;;;;;;;;;;;;;18.30;58.09;100643.19;5040591;28;19939;-76
2022/11/09 08:00:54;;;;;;;;;;;;;;;18.76;56.42;100647.31;5042760;28;20007;-74
2022/11/09 08:03:23;;;;;;;;;;;;;;;18.20;58.21;100651.44;5038583;28;19978;-73
2022/11/09 08:05:48;;;;;;;;;;;;;;;18.00;59.13;100651.53;5042177;28;20284;-75
2022/11/09 08:08:15;;;;;;;;;;;;;;;18.02;59.18;100658.31;5041749;28;19927;-73
2022/11/09 08:10:41;;;;;;;;;;;;;;;19.00;56.23;100653.66;5042387;28;20364;-73
2022/11/09 08:13:08;;;;;;;;;;;;;;;18.41;57.79;100655.66;5032706;28;19932;-74
2022/11/09 08:15:34;;;;;;;;;;;;;;;18.71;57.02;100663.66;5042921;28;20007;-74
2022/11/09 08:18:04;;;;;;;;;;;;;;;18.55;56.64;100654.00;5051072;28;20066;-73
2022/11/09 08:20:29;;;;;;;;;;;;;;;18.60;57.26;100664.00;5051869;28;19919;-73
2022/11/09 08:22:55;;;;;;;;;;;;;;;18.67;57.39;100662.59;5051824;28;19912;-74
2022/11/09 08:25:20;;;;;;;;;;;;;;;18.44;58.46;100667.94;5050309;28;19920;-74
2022/11/09 08:27:45;;;;;;;;;;;;;;;18.30;58.33;100664.97;5050159;28;19917;-74
2022/11/09 08:30:13;;;;;;;;;;;;;;;18.55;58.38;100653.16;5050417;28;20008;-73
2022/11/09 08:32:38;;;;;;;;;;;;;;;18.84;57.09;100673.09;5051962;28;20284;-75
2022/11/09 08:35:04;;;;;;;;;;;;;;;18.82;56.63;100667.13;5051474;28;20034;-75
2022/11/09 08:37:29;;;;;;;;;;;;;;;18.33;57.95;100664.41;5051658;28;20368;-73
2022/11/09 08:39:54;;;;;;;;;;;;;;;18.35;58.82;100665.78;5051643;28;19920;-74
2022/11/09 08:42:20;;;;;;;;;;;;;;;18.88;56.75;100672.25;5051283;28;19920;-73
2022/11/09 08:44:45;;;;;;;;;;;;;;;19.46;55.28;100678.59;5051900;28;19920;-74
2022/11/09 08:47:10;;;;;;;;;;;;;;;18.88;56.57;100680.44;5051296;28;19913;-74
2022/11/09 08:49:35;;;;;;;;;;;;;;;18.24;58.62;100676.97;5051377;28;20082;-73
2022/11/09 08:52:01;;;;;;;;;;;;;;;18.04;59.27;100679.78;5054553;28;19913;-75
2022/11/09 08:54:26;;;;;;;;;;;;;;;18.36;58.06;100688.34;5055101;28;20015;-72
2022/11/09 08:56:55;;;;;;;;;;;;;;;18.80;56.70;100681.03;5055434;28;19913;-73
2022/11/09 08:59:21;;;;;;;;;;;;;;;17.91;59.30;100683.91;5055439;28;19938;-74
2022/11/09 09:01:46;;;;;;;;;;;;;;;18.59;57.65;100678.72;5055108;28;20388;-74
2022/11/09 09:04:11;;;;;;;;;;;;;;;18.00;59.64;100682.25;5054992;28;19921;-73
2022/11/09 09:06:36;;;;;;;;;;;;;;;18.80;56.90;100682.94;5053524;28;20017;-72
2022/11/09 09:09:02;;;;;;;;;;;;;;;19.33;55.86;100678.44;5054896;28;20003;-73
2022/11/09 09:11:27;;;;;;;;;;;;;;;19.24;55.25;100697.31;5055368;28;20438;-73
2022/11/09 09:13:52;;;;;;;;;;;;;;;18.67;57.32;100675.41;5054647;28;19920;-72
2022/11/09 09:16:18;;;;;;;;;;;;;;;18.86;56.44;100685.34;5037755;28;19913;-74
2022/11/09 09:18:43;;;;;;;;;;;;;;;18.11;58.65;100683.00;5042795;28;20520;-73
2022/11/09 09:21:09;;;;;;;;;;;;;;;18.70;57.05;100685.72;5044313;28;20328;-74
2022/11/09 09:23:34;;;;;;;;;;;;;;;19.04;56.19;100690.13;5046157;28;19931;-74
2022/11/09 09:25:59;;;;;;;;;;;;;;;19.27;55.56;100694.81;5042160;28;19921;-75
2022/11/09 09:28:24;;;;;;;;;;;;;;;18.49;56.60;100690.50;5034462;28;19917;-74
2022/11/09 09:30:49;;;;;;;;;;;;;;;19.01;55.44;100704.28;5034593;28;20292;-73
2022/11/09 09:33:15;;;;;;;;;;;;;;;18.71;55.88;100698.25;5034568;28;19951;-72
2022/11/09 09:35:40;;;;;;;;;;;;;;;18.84;55.84;100705.78;5034831;28;19932;-74
2022/11/09 09:38:05;;;;;;;;;;;;;;;19.96;53.18;100709.97;5034472;28;20284;-75
2022/11/09 09:40:37;;;;;;;;;;;;;;;18.94;55.10;100705.72;5034571;28;20012;-74
2022/11/09 09:43:03;;;;;;;;;;;;;;;19.22;54.35;100716.63;5038935;28;19917;-74
2022/11/09 09:45:32;;;;;;;;;;;;;;;19.16;54.88;100715.06;5044466;28;20008;-74
2022/11/09 09:48:06;;;;;;;;;;;;;;;18.90;55.18;100701.91;5043223;28;19913;-71
2022/11/09 09:50:50;;;;;;;;;;;;;;;19.05;55.13;100718.13;5042978;28;19917;-74
2022/11/09 09:53:22;;;;;;;;;;;;;;;19.10;54.61;100718.13;5042610;28;19917;-72
2022/11/09 09:55:52;;;;;;;;;;;;;;;18.78;55.32;100718.63;5043224;28;20299;-72
2022/11/09 09:58:22;;;;;;;;;;;;;;;19.25;54.12;100720.72;5042661;28;20011;-73
2022/11/09 10:00:51;;;;;;;;;;;;;;;19.65;52.86;100714.13;5043106;28;19917;-73
2022/11/09 10:03:17;;;;;;;;;;;;;;;19.05;55.34;100731.75;5038941;28;20007;-75
2022/11/09 10:06:11;;;;;;;;;;;;;;;19.64;53.32;100724.19;5034338;28;19912;-73
2022/11/09 10:08:43;;;;;;;;;;;;;;;19.10;54.25;100740.72;4972394;28;20005;-73
2022/11/09 10:11:19;;;;;;;;;;;;;;;19.25;54.48;100734.34;4985728;28;19921;-74
2022/11/09 10:13:44;;;;;;;;;;;;;;;19.43;53.04;100730.13;4991686;28;19957;-73
2022/11/09 10:16:18;;;;;;;;;;;;;;;19.18;53.75;100725.69;4991369;28;19945;-71
2022/11/09 10:18:56;;;;;;;;;;;;;;;18.88;55.04;100734.06;4991419;28;20021;-72
2022/11/09 10:21:40;;;;;;;;;;;;;;;20.32;50.96;100733.03;4991047;28;19917;-72
2022/11/09 10:24:06;;;;;;;;;;;;;;;19.81;52.32;100737.41;4991443;28;20029;-71
2022/11/09 10:26:43;;;;;;;;;;;;;;;19.83;52.19;100736.00;4982776;28;20266;-72
2022/11/09 10:29:14;;;;;;;;;;;;;;;19.73;52.02;100727.94;4972159;28;20022;-73
2022/11/09 10:31:39;;;;;;;;;;;;;;;18.59;55.22;100746.78;4972027;28;19918;-70
2022/11/09 10:34:24;;;;;;;;;;;;;;;18.79;54.73;100747.47;4971981;28;20468;-72
2022/11/09 10:36:53;;;;;;;;;;;;;;;19.36;53.09;100732.38;4971856;28;19922;-70
2022/11/09 10:39:20;;;;;;;;;;;;;;;19.51;52.79;100727.63;4971480;28;19918;-71
2022/11/09 10:41:45;;;;;;;;;;;;;;;19.37;52.95;100726.66;4971941;28;20417;-70
2022/11/09 10:44:15;;;;;;;;;;;;;;;19.25;53.62;100728.88;4978115;28;19921;-69
2022/11/09 10:46:59;;;;;;;;;;;;;;;20.31;51.06;100720.47;5013290;28;19921;-70
2022/11/09 10:49:24;;;;;;;;;;;;;;;20.09;50.79;100717.44;5013267;28;20348;-70
2022/11/09 10:51:50;;;;;;;;;;;;;;;20.57;50.09;100723.69;5013384;28;19914;-69
2022/11/09 10:54:23;;;;;;;;;;;;;;;20.30;50.45;100721.59;5013146;28;19933;-69
2022/11/09 10:56:51;;;;;;;;;;;;;;;19.14;52.78;100721.91;5013474;28;19914;-70
2022/11/09 10:59:34;;;;;;;;;;;;;;;20.04;51.17;100712.88;5013075;28;19971;-69
2022/11/09 11:01:59;;;;;;;;;;;;;;;19.28;52.13;100737.31;5013169;28;19913;-71
2022/11/09 11:04:25;;;;;;;;;;;;;;;18.31;54.39;100740.06;5013022;28;19967;-77
2022/11/09 11:06:50;;;;;;;;;;;;;;;18.87;53.25;100729.75;5013048;28;19918;-71
2022/11/09 11:09:18;;;;;;;;;;;;;;;18.52;54.40;100738.06;5013061;28;19971;-70
2022/11/09 11:11:44;;;;;;;;;;;;;;;19.29;52.71;100728.03;5013303;28;19909;-72
2022/11/09 11:14:12;;;;;;;;;;;;;;;19.61;51.31;100726.69;5012426;28;19945;-72
2022/11/09 11:16:38;;;;;;;;;;;;;;;19.65;51.31;100727.75;5012685;28;19921;-72
2022/11/09 11:19:03;;;;;;;;;;;;;;;19.93;51.41;100722.25;5012873;28;19913;-71
2022/11/09 11:21:28;;;;;;;;;;;;;;;19.37;51.95;100732.09;5012757;28;19949;-71
2022/11/09 11:24:11;;;;;;;;;;;;;;;19.59;51.73;100720.72;5012925;28;19913;-72
2022/11/09 11:27:02;;;;;;;;;;;;;;;19.38;52.28;100719.28;5011710;28;19956;-72
2022/11/09 11:29:41;;;;;;;;;;;;;;;19.49;52.05;100732.53;5028620;28;19956;-74
2022/11/09 11:32:08;;;;;;;;;;;;;;;19.22;52.25;100729.47;5032421;28;19931;-71
2022/11/09 11:34:36;;;;;;;;;;;;;;;18.96;53.09;100728.03;5032103;28;20518;-73
2022/11/09 11:37:28;;;;;;;;;;;;;;;20.03;50.56;100729.50;5032054;28;19943;-72
2022/11/09 11:40:16;;;;;;;;;;;;;;;19.54;51.27;100727.03;5032230;28;20495;-70
2022/11/09 11:42:42;;;;;;;;;;;;;;;19.34;51.26;100723.69;5031857;28;20004;-72
2022/11/09 11:45:16;;;;;;;;;;;;;;;19.48;51.14;100721.94;5032020;28;19991;-71
2022/11/09 11:47:52;;;;;;;;;;;;;;;19.62;50.27;100731.03;5032776;28;19991;-70
2022/11/09 11:50:24;;;;;;;;;;;;;;;18.85;51.72;100721.03;5031755;28;19974;-71
2022/11/09 11:52:50;;;;;;;;;;;;;;;19.21;51.84;100722.38;5031910;28;20381;-71
2022/11/09 11:55:20;;;;;;;;;;;;;;;19.69;50.00;100726.91;5030659;28;19992;-71
2022/11/09 11:58:04;;;;;;;;;;;;;;;19.64;50.08;100723.38;5032013;28;19916;-70
2022/11/09 12:00:30;;;;;;;;;;;;;;;19.87;49.69;100715.22;5031957;28;19917;-70
2022/11/09 12:03:28;;;;;;;;;;;;;;;19.46;50.98;100705.03;5031795;28;20329;-73
2022/11/09 12:06:02;;;;;;;;;;;;;;;20.48;48.17;100711.81;5033906;28;19995;-71
2022/11/09 12:08:34;;;;;;;;;;;;;;;20.55;48.20;100718.53;5050326;28;20276;-71
2022/11/09 12:10:59;;;;;;;;;;;;;;;20.13;48.95;100724.75;5051900;28;20416;-71
2022/11/09 12:13:45;;;;;;;;;;;;;;;20.22;48.50;100715.97;5051398;28;20063;-71
2022/11/09 12:16:29;;;;;;;;;;;;;;;20.11;49.08;100726.13;5051651;28;20407;-72
2022/11/09 12:19:11;;;;;;;;;;;;;;;19.64;49.61;100715.19;5051493;28;19917;-72
2022/11/09 12:21:51;;;;;;;;;;;;;;;19.05;51.21;100737.22;5051697;28;19920;-72
2022/11/09 12:24:35;;;;;;;;;;;;;;;19.31;49.95;100727.75;5041701;28;19923;-73
2022/11/09 12:27:19;;;;;;;;;;;;;;;19.35;49.75;100737.00;5034825;28;19921;-72
2022/11/09 12:30:14;;;;;;;;;;;;;;;19.62;49.74;100728.31;5036108;28;19920;-73
2022/11/09 12:32:52;;;;;;;;;;;;;;;19.37;50.31;100736.72;4970990;28;19938;-72
2022/11/09 12:35:26;;;;;;;;;;;;;;;19.17;50.21;100713.97;4973973;28;19946;-71
2022/11/09 12:37:55;;;;;;;;;;;;;;;19.20;49.96;100726.22;4973997;28;20008;-71
2022/11/09 12:40:22;;;;;;;;;;;;;;;19.18;50.43;100709.34;4974011;28;19934;-72